createdAt,value
2023-04-18T00:02:07.372Z,6.70
2023-04-18T00:06:59.072Z,6.58
2023-04-18T00:11:51.262Z,6.48
2023-04-18T00:16:43.358Z,6.39
2023-04-18T00:21:36.113Z,6.28
2023-04-18T00:26:28.214Z,6.21
2023-04-18T00:31:19.805Z,6.11
2023-04-18T00:36:11.439Z,6.02
2023-04-18T00:41:03.220Z,5.97
2023-04-18T00:45:57.138Z,5.90
2023-04-18T00:50:48.971Z,5.86
2023-04-18T00:55:40.721Z,5.82
2023-04-18T01:00:32.335Z,5.76
2023-04-18T01:05:24.164Z,5.65
2023-04-18T01:10:15.950Z,5.59
2023-04-18T01:15:08.115Z,5.55
2023-04-18T01:20:01.852Z,5.50
2023-04-18T01:24:53.416Z,5.45
2023-04-18T01:29:45.648Z,5.43
2023-04-18T01:34:37.377Z,5.40
2023-04-18T01:39:28.938Z,5.41
2023-04-18T01:44:20.535Z,5.40
2023-04-18T01:49:12.235Z,5.39
2023-04-18T01:54:03.933Z,5.43
2023-04-18T01:58:56.178Z,5.47
2023-04-18T02:03:47.983Z,5.50
2023-04-18T02:08:39.761Z,5.53
2023-04-18T02:13:31.446Z,5.54
2023-04-18T02:18:24.873Z,5.59
2023-04-18T02:23:16.443Z,5.61
2023-04-18T02:28:08.140Z,5.65
2023-04-18T02:32:59.773Z,5.67
2023-04-18T02:37:51.521Z,5.70
2023-04-18T02:42:43.178Z,5.76
2023-04-18T02:47:46.929Z,5.81
2023-04-18T02:52:43.982Z,5.81
2023-04-18T02:57:35.535Z,5.85
2023-04-18T03:02:27.178Z,5.89
2023-04-18T03:07:18.844Z,5.90
2023-04-18T03:12:10.417Z,5.93
2023-04-18T03:17:02.312Z,5.93
2023-04-18T03:21:53.949Z,5.94
2023-04-18T03:26:46.094Z,5.94
2023-04-18T03:31:37.719Z,5.97
2023-04-18T03:36:29.976Z,6.00
2023-04-18T03:41:21.705Z,6.02
2023-04-18T03:46:13.252Z,6.05
2023-04-18T03:51:06.062Z,6.06
2023-04-18T03:55:58.045Z,6.10
2023-04-18T04:00:51.864Z,6.12
2023-04-18T04:05:43.703Z,6.16
2023-04-18T04:10:36.005Z,6.19
2023-04-18T04:15:27.614Z,6.21
2023-04-18T04:20:24.834Z,6.24
2023-04-18T04:25:17.471Z,6.26
2023-04-18T04:30:11.980Z,6.28
2023-04-18T04:35:05.901Z,6.30
2023-04-18T04:39:57.498Z,6.33
2023-04-18T04:44:49.140Z,6.39
2023-04-18T04:49:40.783Z,6.44
2023-04-18T04:54:32.342Z,6.49
2023-04-18T04:59:24.080Z,6.49
2023-04-18T05:04:16.008Z,6.52
2023-04-18T05:09:07.924Z,6.57
2023-04-18T05:13:59.701Z,6.57
2023-04-18T05:18:51.251Z,6.61
2023-04-18T05:23:42.885Z,6.63
2023-04-18T05:28:34.532Z,6.60
2023-04-18T05:33:26.203Z,6.58
2023-04-18T05:38:17.736Z,6.59
2023-04-18T05:43:09.267Z,6.58
2023-04-18T05:48:01.094Z,6.58
2023-04-18T05:52:52.765Z,6.59
2023-04-18T05:57:44.346Z,6.63
2023-04-18T06:02:36.048Z,6.65
2023-04-18T06:07:27.820Z,6.67
2023-04-18T06:12:19.629Z,6.66
2023-04-18T06:17:12.956Z,6.66
2023-04-18T06:22:04.528Z,6.66
2023-04-18T06:26:57.401Z,6.67
2023-04-18T06:31:50.679Z,6.70
2023-04-18T06:36:42.770Z,6.73
2023-04-18T06:41:34.527Z,6.77
2023-04-18T06:46:26.236Z,6.79
2023-04-18T06:51:17.916Z,6.82
2023-04-18T06:56:09.464Z,6.90
2023-04-18T07:01:01.038Z,6.95
2023-04-18T07:05:52.666Z,7.02
2023-04-18T07:10:44.310Z,7.05
2023-04-18T07:15:36.227Z,7.13
2023-04-18T07:20:27.961Z,7.26
2023-04-18T07:25:19.787Z,7.38
2023-04-18T07:30:11.960Z,7.53
2023-04-18T07:35:04.226Z,7.95
2023-04-18T07:39:55.783Z,8.91
2023-04-18T07:44:47.938Z,9.71
2023-04-18T07:49:39.497Z,10.24
2023-04-18T07:54:31.136Z,10.72
2023-04-18T07:59:22.735Z,11.03
2023-04-18T08:04:15.193Z,11.37
2023-04-18T08:09:06.923Z,11.85
2023-04-18T08:13:58.577Z,12.24
2023-04-18T08:18:50.271Z,12.14
2023-04-18T08:23:41.845Z,12.22
2023-04-18T08:28:33.443Z,12.14
2023-04-18T08:33:25.114Z,11.92
2023-04-18T08:38:18.154Z,11.74
2023-04-18T08:43:14.189Z,12.00
2023-04-18T08:48:06.333Z,11.99
2023-04-18T08:52:59.320Z,12.51
2023-04-18T08:57:54.197Z,13.25
2023-04-18T09:02:47.166Z,13.79
2023-04-18T09:07:38.957Z,14.24
2023-04-18T09:12:32.780Z,14.66
2023-04-18T09:17:31.870Z,14.99
2023-04-18T09:22:23.578Z,15.02
2023-04-18T09:27:15.179Z,15.11
2023-04-18T09:32:07.137Z,15.45
2023-04-18T09:37:10.071Z,15.89
2023-04-18T09:42:02.488Z,16.02
2023-04-18T09:46:54.159Z,16.17
2023-04-18T09:51:46.333Z,16.04
2023-04-18T09:56:42.831Z,16.23
2023-04-18T10:01:34.888Z,16.33
2023-04-18T10:06:28.647Z,16.56
2023-04-18T10:11:20.561Z,16.84
2023-04-18T10:16:12.921Z,16.95
2023-04-18T10:21:05.114Z,16.95
2023-04-18T10:25:56.918Z,16.77
2023-04-18T10:30:50.200Z,16.52
2023-04-18T10:35:56.783Z,16.47
2023-04-18T10:40:48.330Z,16.58
2023-04-18T10:45:40.019Z,16.75
2023-04-18T10:50:31.596Z,16.66
2023-04-18T10:55:29.212Z,16.64
2023-04-18T11:00:23.510Z,16.56
2023-04-18T11:05:19.925Z,16.49
2023-04-18T11:10:13.007Z,16.57
2023-04-18T11:15:11.928Z,16.47
2023-04-18T11:20:12.760Z,16.59
2023-04-18T11:25:08.546Z,16.57
2023-04-18T11:30:00.225Z,16.40
2023-04-18T11:34:55.522Z,16.32
2023-04-18T11:39:47.273Z,16.18
2023-04-18T11:44:40.102Z,16.14
2023-04-18T11:49:32.994Z,16.20
2023-04-18T11:54:42.151Z,16.25
2023-04-18T11:59:33.962Z,16.01
2023-04-18T12:04:25.765Z,15.68
2023-04-18T12:09:18.850Z,15.64
2023-04-18T12:14:22.985Z,15.69
2023-04-18T12:19:14.677Z,15.50
2023-04-18T12:24:16.003Z,15.44
2023-04-18T12:29:07.834Z,15.25
2023-04-18T12:34:00.176Z,14.87
2023-04-18T12:38:52.031Z,14.46
2023-04-18T12:43:43.587Z,14.49
2023-04-18T12:48:35.212Z,14.73
2023-04-18T12:53:26.804Z,14.80
2023-04-18T12:58:18.891Z,14.83
2023-04-18T13:03:12.959Z,14.76
2023-04-18T13:08:16.077Z,14.68
2023-04-18T13:13:09.108Z,14.72
2023-04-18T13:18:05.110Z,14.72
2023-04-18T13:22:56.759Z,14.43
2023-04-18T13:27:50.177Z,14.28
2023-04-18T13:32:43.901Z,14.30
2023-04-18T13:37:36.156Z,14.31
2023-04-18T13:42:27.781Z,14.46
2023-04-18T13:47:19.465Z,14.53
2023-04-18T13:52:11.129Z,14.49
2023-04-18T13:57:03.574Z,14.48
2023-04-18T14:01:55.869Z,14.42
2023-04-18T14:06:48.861Z,14.48
2023-04-18T14:11:40.835Z,14.51
2023-04-18T14:16:33.495Z,14.54
2023-04-18T14:21:26.229Z,14.58
2023-04-18T14:26:18.620Z,14.59
2023-04-18T14:31:10.499Z,14.54
2023-04-18T14:36:02.967Z,14.64
2023-04-18T14:40:55.238Z,14.76
2023-04-18T14:45:46.824Z,14.64
2023-04-18T14:50:38.773Z,14.56
2023-04-18T14:55:30.482Z,14.38
2023-04-18T15:00:22.155Z,14.36
2023-04-18T15:05:13.905Z,14.39
2023-04-18T15:10:06.135Z,14.24
2023-04-18T15:14:59.610Z,14.13
2023-04-18T15:19:51.256Z,14.02
2023-04-18T15:24:42.884Z,13.93
2023-04-18T15:29:34.456Z,13.79
2023-04-18T15:34:26.861Z,13.79
2023-04-18T15:39:21.917Z,13.83
2023-04-18T15:44:13.635Z,13.82
2023-04-18T15:49:05.603Z,13.70
2023-04-18T15:53:57.163Z,13.76
2023-04-18T15:58:49.254Z,13.76
2023-04-18T16:03:40.995Z,13.74
2023-04-18T16:08:33.475Z,13.74
2023-04-18T16:13:25.292Z,13.62
2023-04-18T16:18:16.848Z,13.57
2023-04-18T16:23:08.404Z,13.47
2023-04-18T16:27:59.966Z,13.44
2023-04-18T16:32:51.613Z,13.42
2023-04-18T16:37:43.204Z,13.34
2023-04-18T16:42:34.777Z,13.20
2023-04-18T16:47:26.492Z,13.14
2023-04-18T16:52:18.194Z,13.07
2023-04-18T16:57:10.264Z,13.01
2023-04-18T17:02:02.010Z,12.98
2023-04-18T17:06:53.726Z,12.90
2023-04-18T17:11:45.649Z,12.79
2023-04-18T17:16:38.846Z,12.65
2023-04-18T17:21:31.820Z,12.54
2023-04-18T17:26:24.452Z,12.43
2023-04-18T17:31:16.297Z,12.40
2023-04-18T17:36:08.015Z,12.34
2023-04-18T17:41:04.652Z,12.27
2023-04-18T17:45:59.296Z,12.22
2023-04-18T17:50:50.997Z,12.10
2023-04-18T17:55:42.639Z,12.03
2023-04-18T18:00:34.180Z,11.96
2023-04-18T18:05:25.955Z,11.84
2023-04-18T18:10:23.232Z,11.77
2023-04-18T18:15:15.431Z,11.69
2023-04-18T18:20:10.588Z,11.60
2023-04-18T18:25:03.158Z,11.51
2023-04-18T18:29:54.695Z,11.38
2023-04-18T18:34:46.365Z,11.25
2023-04-18T18:39:37.973Z,11.11
2023-04-18T18:44:30.396Z,10.99
2023-04-18T18:49:22.023Z,10.89
2023-04-18T18:54:13.626Z,10.74
2023-04-18T18:59:05.336Z,10.65
2023-04-18T19:03:57.018Z,10.53
2023-04-18T19:08:48.688Z,10.44
2023-04-18T19:13:40.245Z,10.33
2023-04-18T19:18:31.879Z,10.23
2023-04-18T19:23:25.233Z,10.12
2023-04-18T19:28:18.419Z,10.01
2023-04-18T19:33:10.221Z,9.92
2023-04-18T19:38:02.479Z,9.81
2023-04-18T19:42:54.085Z,9.72
2023-04-18T19:47:47.668Z,9.63
2023-04-18T19:52:39.453Z,9.53
2023-04-18T19:57:31.000Z,9.42
2023-04-18T20:02:22.732Z,9.31
2023-04-18T20:07:14.434Z,9.22
2023-04-18T20:12:06.022Z,9.14
2023-04-18T20:16:57.998Z,9.04
2023-04-18T20:21:49.637Z,8.93
2023-04-18T20:26:41.199Z,8.85
2023-04-18T20:31:32.809Z,8.76
2023-04-18T20:36:24.908Z,8.65
2023-04-18T20:41:21.002Z,8.55
2023-04-18T20:46:13.136Z,8.45
2023-04-18T20:51:04.763Z,8.36
2023-04-18T20:55:56.395Z,8.29
2023-04-18T21:00:48.929Z,8.21
2023-04-18T21:05:40.805Z,8.13
2023-04-18T21:10:32.392Z,8.03
2023-04-18T21:15:23.961Z,7.97
2023-04-18T21:20:15.957Z,7.91
2023-04-18T21:25:07.951Z,7.83
2023-04-18T21:29:59.488Z,7.76
2023-04-18T21:34:51.056Z,7.73
2023-04-18T21:39:42.646Z,7.69
2023-04-18T21:44:34.309Z,7.68
2023-04-18T21:49:25.865Z,7.67
2023-04-18T21:54:17.439Z,7.65
2023-04-18T21:59:09.592Z,7.58
2023-04-18T22:04:02.110Z,7.55
2023-04-18T22:08:53.972Z,7.50
2023-04-18T22:13:45.980Z,7.42
2023-04-18T22:18:38.806Z,7.35
2023-04-18T22:23:30.947Z,7.34
2023-04-18T22:28:25.132Z,7.32
2023-04-18T22:33:16.716Z,7.31
2023-04-18T22:38:08.419Z,7.34
2023-04-18T22:42:59.980Z,7.35
2023-04-18T22:47:51.586Z,7.39
2023-04-18T22:52:43.283Z,7.39
2023-04-18T22:57:34.932Z,7.43
2023-04-18T23:02:26.642Z,7.44
2023-04-18T23:07:18.302Z,7.45
2023-04-18T23:12:09.881Z,7.44
2023-04-18T23:17:01.653Z,7.45
2023-04-18T23:21:54.032Z,7.47
2023-04-18T23:26:45.659Z,7.46
2023-04-18T23:31:37.369Z,7.44
2023-04-18T23:36:28.953Z,7.44
2023-04-18T23:41:20.718Z,7.43
2023-04-18T23:46:13.062Z,7.46
2023-04-18T23:51:04.873Z,7.46
2023-04-18T23:55:56.535Z,7.44
